WetterOnline ( https://www.wetteronline.de )

Wetter aktuell Stein

Aktuelles Wetter: Nürnberg/Flughafen (318m)

6-stündlich | Neueste Meldungen
Ortszeit Temperatur Wetter
Sa, 31.07. 20:00 21.8° C leicht bewölkt
Sa, 31.07. 14:00 23.4° C wolkig
Sa, 31.07. 8:00 18.2° C leicht bewölkt
Sa, 31.07. 2:00 19.9° C bewölkt
Fr, 30.07. 20:00 25.3° C wolkig
Fr, 30.07. 14:00 25.8° C fast wolkenlos
Fr, 30.07. 8:00 14.4° C fast wolkenlos
Fr, 30.07. 2:00 12.2° C leicht bewölkt
Ortszeit Temperatur Wetter
Sa, 31.07. 21:00 19.8° C leicht bewölkt
Sa, 31.07. 20:50 19.8° C leicht bewölkt
Sa, 31.07. 20:40 20.0° C wolkenlos
Sa, 31.07. 20:30 20.7° C wolkenlos
Sa, 31.07. 20:20 20.7° C wolkenlos
Sa, 31.07. 20:10 21.1° C fast wolkenlos
Sa, 31.07. 20:00 21.8° C leicht bewölkt
Sa, 31.07. 19:30 22.2° C leicht bewölkt
Sa, 31.07. 19:00 22.8° C leicht bewölkt
Sa, 31.07. 18:30 22.1° C wolkig
Sa, 31.07. 18:00 22.5° C wolkig
Ortszeit Relative Feuchte Sichtweite
Sa, 31.07. 20:00 47% 60 km
Sa, 31.07. 14:00 42% 55 km
Sa, 31.07. 8:00 62% 50 km
Sa, 31.07. 2:00 73% 50 km
Fr, 30.07. 20:00 53% 50 km
Fr, 30.07. 14:00 38% 55 km
Fr, 30.07. 8:00 82% 35 km
Fr, 30.07. 2:00 89% 35 km
Ortszeit Relative Feuchte Sichtweite
Sa, 31.07. 21:00 55% 60 km
Sa, 31.07. 20:50 55% -
Sa, 31.07. 20:40 54% -
Sa, 31.07. 20:30 50% >70 km
Sa, 31.07. 20:20 50% -
Sa, 31.07. 20:10 48% -
Sa, 31.07. 20:00 47% 60 km
Sa, 31.07. 19:30 44% 55 km
Sa, 31.07. 19:00 44% 60 km
Sa, 31.07. 18:30 45% 65 km
Sa, 31.07. 18:00 44% 60 km
Ortszeit Niederschlagsmenge Niederschlagsart
Sa, 31.07. 20:00 0.0 l/m2 in 12 Std. -
Sa, 31.07. 14:00 0.0 l/m2 in 6 Std. -
Sa, 31.07. 8:00 0.0 l/m2 in 12 Std. -
Sa, 31.07. 2:00 0.0 l/m2 in 6 Std. -
Fr, 30.07. 20:00 0.0 l/m2 in 12 Std. -
Fr, 30.07. 14:00 0.0 l/m2 in 6 Std. -
Fr, 30.07. 8:00 0.0 l/m2 in 12 Std. -
Fr, 30.07. 2:00 0.0 l/m2 in 6 Std. -
Ortszeit Niederschlagsmenge Niederschlagsart
Sa, 31.07. 21:00 0.0 l/m2 in 1 Std. -
Sa, 31.07. 20:50 keine Meldung -
Sa, 31.07. 20:40 keine Meldung -
Sa, 31.07. 20:30 0.0 l/m2 in 1 Std. -
Sa, 31.07. 20:20 keine Meldung -
Sa, 31.07. 20:10 keine Meldung -
Sa, 31.07. 20:00 0.0 l/m2 in 1 Std. -
Sa, 31.07. 19:30 0.0 l/m2 in 1 Std. -
Sa, 31.07. 19:00 0.0 l/m2 in 1 Std. -
Sa, 31.07. 18:30 0.0 l/m2 in 1 Std. -
Sa, 31.07. 18:00 0.0 l/m2 in 1 Std. -
Ortszeit Stärke Spitze Richtung
km/h Bft. km/h Grad Sektor
Sa, 31.07. 20:00 17 3 39 260° W
Sa, 31.07. 14:00 22 4 43 250° W
Sa, 31.07. 8:00 15 3 24 250° W
Sa, 31.07. 2:00 11 2 22 190° S
Fr, 30.07. 20:00 14 3 36 290° W
Fr, 30.07. 14:00 20 4 31 180° S
Fr, 30.07. 8:00 7 2 17 110° O
Fr, 30.07. 2:00 4 1 18 80° O
Ortszeit Stärke Spitze Richtung
km/h Bft. km/h Grad Sektor
Sa, 31.07. 21:00 7 2 22 240° SW
Sa, 31.07. 20:50 7 2 - 240° SW
Sa, 31.07. 20:40 9 2 - 250° W
Sa, 31.07. 20:30 11 2 22 250° W
Sa, 31.07. 20:20 11 2 - 250° W
Sa, 31.07. 20:10 14 3 - 260° W
Sa, 31.07. 20:00 17 3 30 260° W
Sa, 31.07. 19:30 17 3 30 250° W
Sa, 31.07. 19:00 15 3 26 260° W
Sa, 31.07. 18:30 15 3 26 270° W
Sa, 31.07. 18:00 17 3 39 260° W
Ortszeit Untergrenze Bedeckung Gattung
total tief tief mittel hoch
Sa, 31.07. 20:00 1800 m 3/8 1/8 Sc - Ci
Sa, 31.07. 14:00 1500 m 5/8 4/8 Cu - Ci
Sa, 31.07. 8:00 1800 m 2/8 2/8 Sc - Ci
Sa, 31.07. 2:00 480 m 7/8 7/8 Cu - -
Fr, 30.07. 20:00 1800 m 7/8 2/8 Cu As Cs
Fr, 30.07. 14:00 1500 m 1/8 1/8 Cu - -
Fr, 30.07. 8:00 3000 m 1/8 1/8 - Ac Ci
Fr, 30.07. 2:00 7500 m 3/8 0/8 - - Ci
Ortszeit Bedeckungsgrad in Achtel und Wolkenuntergrenze
Sa, 31.07. 21:00 1(1800m)
Sa, 31.07. 20:50 4(4200m)
Sa, 31.07. 20:40 keine Wolken
Sa, 31.07. 20:30 keine Wolken
Sa, 31.07. 20:20 keine Wolken
Sa, 31.07. 20:10 2(9000m)
Sa, 31.07. 20:00 1(1800m) 3(8400m)
Sa, 31.07. 19:30 2(6600m) 3(7500m)
Sa, 31.07. 19:00 2(1800m) 6(7500m) 8(8700m)
Sa, 31.07. 18:30 5(7200m) 8(7800m)
Sa, 31.07. 18:00 3(1800m) 4(9000m)
Ortszeit Luftdruck NN (hPa) Tendenz (hPa in 3 Std.)
Sa, 31.07. 20:00 1010 - 0,2
Sa, 31.07. 14:00 1011 - 0,3
Sa, 31.07. 8:00 1011 + 0,7
Sa, 31.07. 2:00 1010 + 0,8
Fr, 30.07. 20:00 1007 - 0,3
Fr, 30.07. 14:00 1010 - 1,7
Fr, 30.07. 8:00 1013 - 0,4
Fr, 30.07. 2:00 1014 - 0,3
Ortszeit Luftdruck NN (hPa) Tendenz (hPa in 3 Std.)
Sa, 31.07. 21:00 1010 + 0,5
Sa, 31.07. 20:50 1010 keine Meldung
Sa, 31.07. 20:40 1010 keine Meldung
Sa, 31.07. 20:30 1010 + 0,1
Sa, 31.07. 20:20 1010 keine Meldung
Sa, 31.07. 20:10 1010 keine Meldung
Sa, 31.07. 20:00 1010 - 0,2
Sa, 31.07. 19:30 1010 - 0,3
Sa, 31.07. 19:00 1010 - 0,5
Sa, 31.07. 18:30 1009 - 1,0
Sa, 31.07. 18:00 1010 - 0,8
Ortszeit Schneehöhe (cm)
Sa, 31.07. 20:00 0
Sa, 31.07. 14:00 0
Sa, 31.07. 8:00 0
Sa, 31.07. 2:00 0
Fr, 30.07. 20:00 0
Fr, 30.07. 14:00 0
Fr, 30.07. 8:00 0
Fr, 30.07. 2:00 0
Ortszeit Schneehöhe (cm)
Sa, 31.07. 21:00 -
Sa, 31.07. 20:50 -
Sa, 31.07. 20:40 -
Sa, 31.07. 20:30 -
Sa, 31.07. 20:20 -
Sa, 31.07. 20:10 -
Sa, 31.07. 20:00 0
Sa, 31.07. 19:30 -
Sa, 31.07. 19:00 -
Sa, 31.07. 18:30 -
Sa, 31.07. 18:00 -
Link zu dieser Seite / Seite empfehlen

Das Wetter in ...